Aviation Digital Data Service (ADDS)

Output produced by METARs form (0336 UTC 20 March 2019)
found at http://www.aviationweather.gov/metar/data/
 
METAR text: UTDD 200330Z VRB01MPS 3200 BR FU NSC 09/06 Q1017 R09/CLRD// NOSIG RMK QFE694/0926
Conditions at: UTDD (DUSHANBE , TJ) observed 0330 UTC 20 March 2019
Temperature: 9.0°C (48°F)
Dewpoint: 6.0°C (43°F) [RH = 81%]
Pressure (altimeter): 30.03 inches Hg (1017.0 mb)
Winds: variable direction winds at 2 MPH (2 knots; 1.0 m/s)
Visibility: 1.99 miles (3.20 km)
Ceiling: at least 12,000 feet AGL
Clouds: sky clear below 12,000 feet AGL
Weather: BR FU  (mist, smoke)

METAR text: UTDD 200300Z VRB01MPS 2200 1100N BR FU NSC 07/06 Q1017 R09/D NOSIG RMK QFE694/0926
Conditions at: UTDD (DUSHANBE , TJ) observed 0300 UTC 20 March 2019
Temperature: 7.0°C (45°F)
Dewpoint: 6.0°C (43°F) [RH = 93%]
Pressure (altimeter): 30.03 inches Hg (1017.0 mb)
Winds: variable direction winds at 2 MPH (2 knots; 1.0 m/s)
Visibility: 1.37 miles (2.20 km)
Ceiling: at least 12,000 feet AGL
Clouds: sky clear below 12,000 feet AGL
Weather: FU BR  (smoke, mist)

METAR text: UTDD 200230Z 00000MPS 4000 BR FU NSC 06/05 Q1017 R09/D NOSIG RMK QFE694/0926
Conditions at: UTDD (DUSHANBE , TJ) observed 0230 UTC 20 March 2019
Temperature: 6.0°C (43°F)
Dewpoint: 5.0°C (41°F) [RH = 93%]
Pressure (altimeter): 30.03 inches Hg (1017.0 mb)
Winds: calm
Visibility: 2.49 miles (4.01 km)
Ceiling: at least 12,000 feet AGL
Clouds: sky clear below 12,000 feet AGL
Weather: BR FU  (mist, smoke)

METAR text: UTDD 200200Z VRB01MPS 6000 NSC 05/05 Q1017 R09/D NOSIG RMK QFE694/0925
Conditions at: UTDD (DUSHANBE , TJ) observed 0200 UTC 20 March 2019
Temperature: 5.0°C (41°F)
Dewpoint: 5.0°C (41°F) [RH = 100%]
Pressure (altimeter): 30.03 inches Hg (1017.0 mb)
Winds: variable direction winds at 2 MPH (2 knots; 1.0 m/s)
Visibility: 4 miles ( 6 km)
Ceiling: at least 12,000 feet AGL
Clouds: sky clear below 12,000 feet AGL
Weather: no significant weather observed at this time

METAR text: UTDD 200130Z VRB01MPS 3900 BR FU NSC 05/04 Q1016 R09/D NOSIG RMK QFE694/0925
Conditions at: UTDD (DUSHANBE , TJ) observed 0130 UTC 20 March 2019
Temperature: 5.0°C (41°F)
Dewpoint: 4.0°C (39°F) [RH = 93%]
Pressure (altimeter): 30.00 inches Hg (1016.0 mb)
Winds: variable direction winds at 2 MPH (2 knots; 1.0 m/s)
Visibility: 2.42 miles (3.89 km)
Ceiling: at least 12,000 feet AGL
Clouds: sky clear below 12,000 feet AGL
Weather: BR FU  (mist, smoke)

METAR text: UTDD 200100Z VRB01MPS 8000 3000E BR FU FEW009 SCT066CB 05/04 Q1016 R09/D NOSIG RMK QFE694/0925
Conditions at: UTDD (DUSHANBE , TJ) observed 0100 UTC 20 March 2019
Temperature: 5.0°C (41°F)
Dewpoint: 4.0°C (39°F) [RH = 93%]
Pressure (altimeter): 30.00 inches Hg (1016.0 mb)
Winds: variable direction winds at 2 MPH (2 knots; 1.0 m/s)
Visibility: 5 miles ( 8 km)
Ceiling: at least 12,000 feet AGL
Clouds: few clouds at 900 feet AGL
scattered clouds at 6600 feet AGL
Weather: FU BR  (smoke, mist)

METAR text: UTDD 200030Z 29002MPS 7000 FEW008 SCT066CB 06/05 Q1016 R09/D NOSIG RMK QFE694/0925
Conditions at: UTDD (DUSHANBE , TJ) observed 0030 UTC 20 March 2019
Temperature: 6.0°C (43°F)
Dewpoint: 5.0°C (41°F) [RH = 93%]
Pressure (altimeter): 30.00 inches Hg (1016.0 mb)
Winds: from the WNW (290 degrees) at 5 MPH (4 knots; 2.1 m/s)
Visibility: 4 miles ( 7 km)
Ceiling: at least 12,000 feet AGL
Clouds: few clouds at 800 feet AGL
scattered clouds at 6600 feet AGL
Weather: no significant weather observed at this time

METAR text: UTDD 200000Z 32001MPS 9000 FEW075CB 06/05 Q1016 R09/D NOSIG RMK QFE693/0925
Conditions at: UTDD (DUSHANBE , TJ) observed 0000 UTC 20 March 2019
Temperature: 6.0°C (43°F)
Dewpoint: 5.0°C (41°F) [RH = 93%]
Pressure (altimeter): 30.00 inches Hg (1016.0 mb)
Winds: from the NW (320 degrees) at 2 MPH (2 knots; 1.0 m/s)
Visibility: 6 miles ( 9 km)
Ceiling: at least 12,000 feet AGL
Clouds: few clouds at 7500 feet AGL
Weather: no significant weather observed at this time

METAR text: UTDD 192330Z 00000MPS 9999 FEW066CB 06/04 Q1016 R09/D NOSIG RMK QFE693/0925
Conditions at: UTDD (DUSHANBE , TJ) observed 2330 UTC 19 March 2019
Temperature: 6.0°C (43°F)
Dewpoint: 4.0°C (39°F) [RH = 87%]
Pressure (altimeter): 30.00 inches Hg (1016.0 mb)
Winds: calm
Visibility: 6 or more miles (10+ km)
Ceiling: at least 12,000 feet AGL
Clouds: few clouds at 6600 feet AGL
Weather: no significant weather observed at this time

METAR text: UTDD 192300Z 02001MPS 9999 FEW066CB 07/05 Q1016 R09/D NOSIG RMK QFE693/0925
Conditions at: UTDD (DUSHANBE , TJ) observed 2300 UTC 19 March 2019
Temperature: 7.0°C (45°F)
Dewpoint: 5.0°C (41°F) [RH = 87%]
Pressure (altimeter): 30.00 inches Hg (1016.0 mb)
Winds: from the NNE (20 degrees) at 2 MPH (2 knots; 1.0 m/s)
Visibility: 6 or more miles (10+ km)
Ceiling: at least 12,000 feet AGL
Clouds: few clouds at 6600 feet AGL
Weather: no significant weather observed at this time

METAR text: UTDD 192230Z 04001MPS 9999 FEW066CB 07/05 Q1016 R09/D NOSIG RMK QFE693/0925
Conditions at: UTDD (DUSHANBE , TJ) observed 2230 UTC 19 March 2019
Temperature: 7.0°C (45°F)
Dewpoint: 5.0°C (41°F) [RH = 87%]
Pressure (altimeter): 30.00 inches Hg (1016.0 mb)
Winds: from the NE (40 degrees) at 2 MPH (2 knots; 1.0 m/s)
Visibility: 6 or more miles (10+ km)
Ceiling: at least 12,000 feet AGL
Clouds: few clouds at 6600 feet AGL
Weather: no significant weather observed at this time

METAR text: UTDD 192200Z 00000MPS 9999 FEW066CB 07/05 Q1016 R09/D NOSIG RMK QFE694/0925
Conditions at: UTDD (DUSHANBE , TJ) observed 2200 UTC 19 March 2019
Temperature: 7.0°C (45°F)
Dewpoint: 5.0°C (41°F) [RH = 87%]
Pressure (altimeter): 30.00 inches Hg (1016.0 mb)
Winds: calm
Visibility: 6 or more miles (10+ km)
Ceiling: at least 12,000 feet AGL
Clouds: few clouds at 6600 feet AGL
Weather: no significant weather observed at this time

METAR text: UTDD 192130Z 00000MPS 9999 FEW066CB 07/06 Q1016 R09/D NOSIG RMK QFE694/0925
Conditions at: UTDD (DUSHANBE , TJ) observed 2130 UTC 19 March 2019
Temperature: 7.0°C (45°F)
Dewpoint: 6.0°C (43°F) [RH = 93%]
Pressure (altimeter): 30.00 inches Hg (1016.0 mb)
Winds: calm
Visibility: 6 or more miles (10+ km)
Ceiling: at least 12,000 feet AGL
Clouds: few clouds at 6600 feet AGL
Weather: no significant weather observed at this time

METAR text: UTDD 192100Z 00000MPS 9999 FEW072CB 07/05 Q1016 R09/D NOSIG RMK QFE694/0925
Conditions at: UTDD (DUSHANBE , TJ) observed 2100 UTC 19 March 2019
Temperature: 7.0°C (45°F)
Dewpoint: 5.0°C (41°F) [RH = 87%]
Pressure (altimeter): 30.00 inches Hg (1016.0 mb)
Winds: calm
Visibility: 6 or more miles (10+ km)
Ceiling: at least 12,000 feet AGL
Clouds: few clouds at 7200 feet AGL
Weather: no significant weather observed at this time

METAR text: UTDD 192030Z 00000MPS 9999 FEW072CB 07/05 Q1016 R09/D NOSIG RMK QFE694/0925
Conditions at: UTDD (DUSHANBE , TJ) observed 2030 UTC 19 March 2019
Temperature: 7.0°C (45°F)
Dewpoint: 5.0°C (41°F) [RH = 87%]
Pressure (altimeter): 30.00 inches Hg (1016.0 mb)
Winds: calm
Visibility: 6 or more miles (10+ km)
Ceiling: at least 12,000 feet AGL
Clouds: few clouds at 7200 feet AGL
Weather: no significant weather observed at this time

METAR text: UTDD 192000Z 00000MPS 9999 FEW066CB 07/05 Q1016 R09/D NOSIG RMK QFE694/0925
Conditions at: UTDD (DUSHANBE , TJ) observed 2000 UTC 19 March 2019
Temperature: 7.0°C (45°F)
Dewpoint: 5.0°C (41°F) [RH = 87%]
Pressure (altimeter): 30.00 inches Hg (1016.0 mb)
Winds: calm
Visibility: 6 or more miles (10+ km)
Ceiling: at least 12,000 feet AGL
Clouds: few clouds at 6600 feet AGL
Weather: no significant weather observed at this time

METAR text: UTDD 191930Z VRB01MPS 9999 FEW066CB 09/06 Q1016 R09/D NOSIG RMK QFE694/0925
Conditions at: UTDD (DUSHANBE , TJ) observed 1930 UTC 19 March 2019
Temperature: 9.0°C (48°F)
Dewpoint: 6.0°C (43°F) [RH = 81%]
Pressure (altimeter): 30.00 inches Hg (1016.0 mb)
Winds: variable direction winds at 2 MPH (2 knots; 1.0 m/s)
Visibility: 6 or more miles (10+ km)
Ceiling: at least 12,000 feet AGL
Clouds: few clouds at 6600 feet AGL
Weather: no significant weather observed at this time

METAR text: UTDD 191900Z VRB01MPS 9999 FEW066CB 09/06 Q1016 R09/19//60 NOSIG RMK QFE694/0925
Conditions at: UTDD (DUSHANBE , TJ) observed 1900 UTC 19 March 2019
Temperature: 9.0°C (48°F)
Dewpoint: 6.0°C (43°F) [RH = 81%]
Pressure (altimeter): 30.00 inches Hg (1016.0 mb)
Winds: variable direction winds at 2 MPH (2 knots; 1.0 m/s)
Visibility: 6 or more miles (10+ km)
Ceiling: at least 12,000 feet AGL
Clouds: few clouds at 6600 feet AGL
Weather: no significant weather observed at this time

METAR text: UTDD 191830Z 03002MPS 9999 FEW066CB 09/06 Q1016 R09/19//60 NOSIG RMK QFE694/0925
Conditions at: UTDD (DUSHANBE , TJ) observed 1830 UTC 19 March 2019
Temperature: 9.0°C (48°F)
Dewpoint: 6.0°C (43°F) [RH = 81%]
Pressure (altimeter): 30.00 inches Hg (1016.0 mb)
Winds: from the NNE (30 degrees) at 5 MPH (4 knots; 2.1 m/s)
Visibility: 6 or more miles (10+ km)
Ceiling: at least 12,000 feet AGL
Clouds: few clouds at 6600 feet AGL
Weather: no significant weather observed at this time

METAR text: UTDD 191800Z 00000MPS 3900 BR FU SCT066CB 09/07 Q1017 R09/19//60 NOSIG RMK QFE694/0925
Conditions at: UTDD (DUSHANBE , TJ) observed 1800 UTC 19 March 2019
Temperature: 9.0°C (48°F)
Dewpoint: 7.0°C (45°F) [RH = 87%]
Pressure (altimeter): 30.03 inches Hg (1017.0 mb)
Winds: calm
Visibility: 2.42 miles (3.89 km)
Ceiling: at least 12,000 feet AGL
Clouds: scattered clouds at 6600 feet AGL
Weather: BR FU  (mist, smoke)

METAR text: UTDD 191730Z 00000MPS 4100 BR FU SCT066CB 09/07 Q1017 R09/19//60 NOSIG RMK QFE694/0925
Conditions at: UTDD (DUSHANBE , TJ) observed 1730 UTC 19 March 2019
Temperature: 9.0°C (48°F)
Dewpoint: 7.0°C (45°F) [RH = 87%]
Pressure (altimeter): 30.03 inches Hg (1017.0 mb)
Winds: calm
Visibility: 2.55 miles (4.10 km)
Ceiling: at least 12,000 feet AGL
Clouds: scattered clouds at 6600 feet AGL
Weather: BR FU  (mist, smoke)

METAR text: UTDD 191700Z 05001MPS 4300 BR FU FEW080CB SCT099 10/07 Q1017 R09/19//60 NOSIG RMK QFE694/0925
Conditions at: UTDD (DUSHANBE , TJ) observed 1700 UTC 19 March 2019
Temperature: 10.0°C (50°F)
Dewpoint: 7.0°C (45°F) [RH = 82%]
Pressure (altimeter): 30.03 inches Hg (1017.0 mb)
Winds: from the NE (50 degrees) at 2 MPH (2 knots; 1.0 m/s)
Visibility: 2.67 miles (4.30 km)
Ceiling: at least 12,000 feet AGL
Clouds: few clouds at 8000 feet AGL
scattered clouds at 9900 feet AGL
Weather: BR FU  (mist, smoke)

METAR text: UTDD 191630Z 00000MPS 2500 BR FU SCT077CB BKN120 09/07 Q1017 R09/19//60 NOSIG RMK QFE694/0925
Conditions at: UTDD (DUSHANBE , TJ) observed 1630 UTC 19 March 2019
Temperature: 9.0°C (48°F)
Dewpoint: 7.0°C (45°F) [RH = 87%]
Pressure (altimeter): 30.03 inches Hg (1017.0 mb)
Winds: calm
Visibility: 1.55 miles (2.49 km)
Ceiling: 12000 feet AGL
Clouds: scattered clouds at 7700 feet AGL
broken clouds at 12000 feet AGL
Weather: BR FU  (mist, smoke)

METAR text: UTDD 191600Z VRB02MPS 4500 BR FU FEW044CB OVC078 10/07 Q1016 R09/19//60 NOSIG RMK QFE694/0925
Conditions at: UTDD (DUSHANBE , TJ) observed 1600 UTC 19 March 2019
Temperature: 10.0°C (50°F)
Dewpoint: 7.0°C (45°F) [RH = 82%]
Pressure (altimeter): 30.00 inches Hg (1016.0 mb)
Winds: variable direction winds at 5 MPH (4 knots; 2.1 m/s)
Visibility: 2.80 miles (4.51 km)
Ceiling: 7800 feet AGL
Clouds: few clouds at 4400 feet AGL
overcast cloud deck at 7800 feet AGL
Weather: BR FU  (mist, smoke)

METAR text: UTDD 191530Z 06002MPS 6000 SCT044CB BKN052 OVC081 10/07 Q1016 R09/19//60 NOSIG RMK QFE694/0925
Conditions at: UTDD (DUSHANBE , TJ) observed 1530 UTC 19 March 2019
Temperature: 10.0°C (50°F)
Dewpoint: 7.0°C (45°F) [RH = 82%]
Pressure (altimeter): 30.00 inches Hg (1016.0 mb)
Winds: from the ENE (60 degrees) at 5 MPH (4 knots; 2.1 m/s)
Visibility: 4 miles ( 6 km)
Ceiling: 5200 feet AGL
Clouds: scattered clouds at 4400 feet AGL
broken clouds at 5200 feet AGL
overcast cloud deck at 8100 feet AGL
Weather: no significant weather observed at this time

METAR text: UTDD 191500Z 10003MPS 5000 -SHRA BR FU SCT043CB SCT060 OVC081 10/07 Q1016 R09/19//60 NOSIG RMK QFE694/0925
Conditions at: UTDD (DUSHANBE , TJ) observed 1500 UTC 19 March 2019
Temperature: 10.0°C (50°F)
Dewpoint: 7.0°C (45°F) [RH = 82%]
Pressure (altimeter): 30.00 inches Hg (1016.0 mb)
Winds: from the E (100 degrees) at 7 MPH (6 knots; 3.1 m/s)
Visibility: 3 miles ( 5 km)
Ceiling: 8100 feet AGL
Clouds: scattered clouds at 4300 feet AGL
scattered clouds at 6000 feet AGL
overcast cloud deck at 8100 feet AGL
Weather: -SHRA BR FU  (light rain showers, mist, smoke)

METAR text: UTDD 191430Z 11002MPS 6000 FEW036CB OVC071 10/07 Q1016 R09/19//60 NOSIG RMK QFE694/0925
Conditions at: UTDD (DUSHANBE , TJ) observed 1430 UTC 19 March 2019
Temperature: 10.0°C (50°F)
Dewpoint: 7.0°C (45°F) [RH = 82%]
Pressure (altimeter): 30.00 inches Hg (1016.0 mb)
Winds: from the ESE (110 degrees) at 5 MPH (4 knots; 2.1 m/s)
Visibility: 4 miles ( 6 km)
Ceiling: 7100 feet AGL
Clouds: few clouds at 3600 feet AGL
overcast cloud deck at 7100 feet AGL
Weather: no significant weather observed at this time

METAR text: UTDD 191400Z 06003MPS 9999 SCT037CB OVC080 11/06 Q1016 R09/19//60 NOSIG RMK QFE693/0925
Conditions at: UTDD (DUSHANBE , TJ) observed 1400 UTC 19 March 2019
Temperature: 11.0°C (52°F)
Dewpoint: 6.0°C (43°F) [RH = 71%]
Pressure (altimeter): 30.00 inches Hg (1016.0 mb)
Winds: from the ENE (60 degrees) at 7 MPH (6 knots; 3.1 m/s)
Visibility: 6 or more miles (10+ km)
Ceiling: 8000 feet AGL
Clouds: scattered clouds at 3700 feet AGL
overcast cloud deck at 8000 feet AGL
Weather: no significant weather observed at this time

METAR text: UTDD 191330Z 07003MPS 9999 BKN036 BKN046CB OVC083 11/06 Q1015 R09/19//60 NOSIG RMK QFE693/0924
Conditions at: UTDD (DUSHANBE , TJ) observed 1330 UTC 19 March 2019
Temperature: 11.0°C (52°F)
Dewpoint: 6.0°C (43°F) [RH = 71%]
Pressure (altimeter): 29.97 inches Hg (1015.0 mb)
Winds: from the ENE (70 degrees) at 7 MPH (6 knots; 3.1 m/s)
Visibility: 6 or more miles (10+ km)
Ceiling: 3600 feet AGL
Clouds: broken clouds at 3600 feet AGL
broken clouds at 4600 feet AGL
overcast cloud deck at 8300 feet AGL
Weather: no significant weather observed at this time

METAR text: UTDD 191300Z 07003MPS 9999 FEW037CB BKN044 11/06 Q1015 R09/19//60 NOSIG RMK QFE693/0924
Conditions at: UTDD (DUSHANBE , TJ) observed 1300 UTC 19 March 2019
Temperature: 11.0°C (52°F)
Dewpoint: 6.0°C (43°F) [RH = 71%]
Pressure (altimeter): 29.97 inches Hg (1015.0 mb)
Winds: from the ENE (70 degrees) at 7 MPH (6 knots; 3.1 m/s)
Visibility: 6 or more miles (10+ km)
Ceiling: 4400 feet AGL
Clouds: few clouds at 3700 feet AGL
broken clouds at 4400 feet AGL
Weather: no significant weather observed at this time

METAR text: UTDD 191230Z 07004MPS 9999 FEW037CB SCT044 BKN072 11/06 Q1015 R09/19//60 NOSIG RMK QFE693/0924
Conditions at: UTDD (DUSHANBE , TJ) observed 1230 UTC 19 March 2019
Temperature: 11.0°C (52°F)
Dewpoint: 6.0°C (43°F) [RH = 71%]
Pressure (altimeter): 29.97 inches Hg (1015.0 mb)
Winds: from the ENE (70 degrees) at 9 MPH (8 knots; 4.1 m/s)
Visibility: 6 or more miles (10+ km)
Ceiling: 7200 feet AGL
Clouds: few clouds at 3700 feet AGL
scattered clouds at 4400 feet AGL
broken clouds at 7200 feet AGL
Weather: no significant weather observed at this time

METAR text: UTDD 191200Z 08004MPS 9999 FEW045CB 11/06 Q1015 R09/19//60 NOSIG RMK QFE693/0924
Conditions at: UTDD (DUSHANBE , TJ) observed 1200 UTC 19 March 2019
Temperature: 11.0°C (52°F)
Dewpoint: 6.0°C (43°F) [RH = 71%]
Pressure (altimeter): 29.97 inches Hg (1015.0 mb)
Winds: from the E (80 degrees) at 9 MPH (8 knots; 4.1 m/s)
Visibility: 6 or more miles (10+ km)
Ceiling: at least 12,000 feet AGL
Clouds: few clouds at 4500 feet AGL
Weather: no significant weather observed at this time

METAR text: UTDD 191130Z 09004MPS 9999 FEW069CB SCT130 11/07 Q1014 R09/29//50 NOSIG RMK QFE693/0923
Conditions at: UTDD (DUSHANBE , TJ) observed 1130 UTC 19 March 2019
Temperature: 11.0°C (52°F)
Dewpoint: 7.0°C (45°F) [RH = 76%]
Pressure (altimeter): 29.94 inches Hg (1014.0 mb)
Winds: from the E (90 degrees) at 9 MPH (8 knots; 4.1 m/s)
Visibility: 6 or more miles (10+ km)
Ceiling: at least 12,000 feet AGL
Clouds: few clouds at 6900 feet AGL
scattered clouds at 13000 feet AGL
Weather: no significant weather observed at this time

METAR text: UTDD 191100Z 08004MPS 9999 SCT066CB BKN130 11/07 Q1014 R09/29//50 NOSIG RMK QFE692/0923
Conditions at: UTDD (DUSHANBE , TJ) observed 1100 UTC 19 March 2019
Temperature: 11.0°C (52°F)
Dewpoint: 7.0°C (45°F) [RH = 76%]
Pressure (altimeter): 29.94 inches Hg (1014.0 mb)
Winds: from the E (80 degrees) at 9 MPH (8 knots; 4.1 m/s)
Visibility: 6 or more miles (10+ km)
Ceiling: 13000 feet AGL
Clouds: scattered clouds at 6600 feet AGL
broken clouds at 13000 feet AGL
Weather: no significant weather observed at this time

METAR text: UTDD 191030Z 08004MPS 9999 FEW039CB BKN063 11/08 Q1014 R09/29//50 NOSIG RMK QFE692/0923
Conditions at: UTDD (DUSHANBE , TJ) observed 1030 UTC 19 March 2019
Temperature: 11.0°C (52°F)
Dewpoint: 8.0°C (46°F) [RH = 82%]
Pressure (altimeter): 29.94 inches Hg (1014.0 mb)
Winds: from the E (80 degrees) at 9 MPH (8 knots; 4.1 m/s)
Visibility: 6 or more miles (10+ km)
Ceiling: 6300 feet AGL
Clouds: few clouds at 3900 feet AGL
broken clouds at 6300 feet AGL
Weather: no significant weather observed at this time

METAR text: UTDD 191000Z 09004MPS 9999 FEW045CB BKN063 11/08 Q1014 R09/29//50 NOSIG RMK QFE692/0923
Conditions at: UTDD (DUSHANBE , TJ) observed 1000 UTC 19 March 2019
Temperature: 11.0°C (52°F)
Dewpoint: 8.0°C (46°F) [RH = 82%]
Pressure (altimeter): 29.94 inches Hg (1014.0 mb)
Winds: from the E (90 degrees) at 9 MPH (8 knots; 4.1 m/s)
Visibility: 6 or more miles (10+ km)
Ceiling: 6300 feet AGL
Clouds: few clouds at 4500 feet AGL
broken clouds at 6300 feet AGL
Weather: no significant weather observed at this time

METAR text: UTDD 190930Z 08004MPS 9999 SCT043CB BKN065 BKN079 11/07 Q1014 R09/29//50 NOSIG RMK QFE692/0923
Conditions at: UTDD (DUSHANBE , TJ) observed 0930 UTC 19 March 2019
Temperature: 11.0°C (52°F)
Dewpoint: 7.0°C (45°F) [RH = 76%]
Pressure (altimeter): 29.94 inches Hg (1014.0 mb)
Winds: from the E (80 degrees) at 9 MPH (8 knots; 4.1 m/s)
Visibility: 6 or more miles (10+ km)
Ceiling: 6500 feet AGL
Clouds: scattered clouds at 4300 feet AGL
broken clouds at 6500 feet AGL
broken clouds at 7900 feet AGL
Weather: no significant weather observed at this time

METAR text: UTDD 190900Z 10005MPS 9999 -SHRA SCT037CB BKN046 OVC065 10/08 Q1014 R09/29//50 NOSIG RMK QFE692/0923
Conditions at: UTDD (DUSHANBE , TJ) observed 0900 UTC 19 March 2019
Temperature: 10.0°C (50°F)
Dewpoint: 8.0°C (46°F) [RH = 87%]
Pressure (altimeter): 29.94 inches Hg (1014.0 mb)
Winds: from the E (100 degrees) at 12 MPH (10 knots; 5.1 m/s)
Visibility: 6 or more miles (10+ km)
Ceiling: 4600 feet AGL
Clouds: scattered clouds at 3700 feet AGL
broken clouds at 4600 feet AGL
overcast cloud deck at 6500 feet AGL
Weather: -SHRA  (light rain showers)

METAR text: UTDD 190830Z 09004MPS 9000 -SHRA SCT041CB OVC047 10/08 Q1014 R09/29//50 NOSIG RMK QFE692/0923
Conditions at: UTDD (DUSHANBE , TJ) observed 0830 UTC 19 March 2019
Temperature: 10.0°C (50°F)
Dewpoint: 8.0°C (46°F) [RH = 87%]
Pressure (altimeter): 29.94 inches Hg (1014.0 mb)
Winds: from the E (90 degrees) at 9 MPH (8 knots; 4.1 m/s)
Visibility: 6 miles ( 9 km)
Ceiling: 4700 feet AGL
Clouds: scattered clouds at 4100 feet AGL
overcast cloud deck at 4700 feet AGL
Weather: -SHRA  (light rain showers)

METAR text: UTDD 190800Z 11004MPS 6000 -SHRA SCT044CB SCT044 10/08 Q1014 R09/29//50 NOSIG RMK QFE692/0923
Conditions at: UTDD (DUSHANBE , TJ) observed 0800 UTC 19 March 2019
Temperature: 10.0°C (50°F)
Dewpoint: 8.0°C (46°F) [RH = 87%]
Pressure (altimeter): 29.94 inches Hg (1014.0 mb)
Winds: from the ESE (110 degrees) at 9 MPH (8 knots; 4.1 m/s)
Visibility: 4 miles ( 6 km)
Ceiling: at least 12,000 feet AGL
Clouds: scattered clouds at 4400 feet AGL
scattered clouds at 4400 feet AGL
Weather: -SHRA  (light rain showers)

METAR text: UTDD 190730Z 10004MPS 5000 -SHRA BR FU SCT034CB BKN045 OVC051 10/08 Q1014 R09/29//50 NOSIG RMK QFE692/0923
Conditions at: UTDD (DUSHANBE , TJ) observed 0730 UTC 19 March 2019
Temperature: 10.0°C (50°F)
Dewpoint: 8.0°C (46°F) [RH = 87%]
Pressure (altimeter): 29.94 inches Hg (1014.0 mb)
Winds: from the E (100 degrees) at 9 MPH (8 knots; 4.1 m/s)
Visibility: 3 miles ( 5 km)
Ceiling: 4500 feet AGL
Clouds: scattered clouds at 3400 feet AGL
broken clouds at 4500 feet AGL
overcast cloud deck at 5100 feet AGL
Weather: -SHRA BR FU  (light rain showers, mist, smoke)

METAR text: UTDD 190700Z 11003MPS 5000 -SHRA BR FU SCT048CB OVC055 10/09 Q1014 R09/29//50 NOSIG RMK QFE692/0923
Conditions at: UTDD (DUSHANBE , TJ) observed 0700 UTC 19 March 2019
Temperature: 10.0°C (50°F)
Dewpoint: 9.0°C (48°F) [RH = 93%]
Pressure (altimeter): 29.94 inches Hg (1014.0 mb)
Winds: from the ESE (110 degrees) at 7 MPH (6 knots; 3.1 m/s)
Visibility: 3 miles ( 5 km)
Ceiling: 5500 feet AGL
Clouds: scattered clouds at 4800 feet AGL
overcast cloud deck at 5500 feet AGL
Weather: -SHRA BR FU  (light rain showers, mist, smoke)

METAR text: UTDD 190630Z 09003MPS 6000 -SHRA SCT051CB OVC059 10/09 Q1014 R09/29//50 NOSIG RMK QFE692/0923
Conditions at: UTDD (DUSHANBE , TJ) observed 0630 UTC 19 March 2019
Temperature: 10.0°C (50°F)
Dewpoint: 9.0°C (48°F) [RH = 93%]
Pressure (altimeter): 29.94 inches Hg (1014.0 mb)
Winds: from the E (90 degrees) at 7 MPH (6 knots; 3.1 m/s)
Visibility: 4 miles ( 6 km)
Ceiling: 5900 feet AGL
Clouds: scattered clouds at 5100 feet AGL
overcast cloud deck at 5900 feet AGL
Weather: -SHRA  (light rain showers)

METAR text: UTDD 190600Z 09004MPS 8000 -SHRA SCT028CB BKN058 OVC069 10/09 Q1014 R09/29//50 NOSIG RMK QFE692/0923
Conditions at: UTDD (DUSHANBE , TJ) observed 0600 UTC 19 March 2019
Temperature: 10.0°C (50°F)
Dewpoint: 9.0°C (48°F) [RH = 93%]
Pressure (altimeter): 29.94 inches Hg (1014.0 mb)
Winds: from the E (90 degrees) at 9 MPH (8 knots; 4.1 m/s)
Visibility: 5 miles ( 8 km)
Ceiling: 5800 feet AGL
Clouds: scattered clouds at 2800 feet AGL
broken clouds at 5800 feet AGL
overcast cloud deck at 6900 feet AGL
Weather: -SHRA  (light rain showers)

METAR text: UTDD 190530Z 10003MPS 7000 -SHRA SCT046CB OVC054 10/08 Q1014 R09/29//50 NOSIG RMK QFE692/0923
Conditions at: UTDD (DUSHANBE , TJ) observed 0530 UTC 19 March 2019
Temperature: 10.0°C (50°F)
Dewpoint: 8.0°C (46°F) [RH = 87%]
Pressure (altimeter): 29.94 inches Hg (1014.0 mb)
Winds: from the E (100 degrees) at 7 MPH (6 knots; 3.1 m/s)
Visibility: 4 miles ( 7 km)
Ceiling: 5400 feet AGL
Clouds: scattered clouds at 4600 feet AGL
overcast cloud deck at 5400 feet AGL
Weather: -SHRA  (light rain showers)

METAR text: UTDD 190500Z 12004MPS 6000 -SHRA SCT051CB OVC064 10/09 Q1013 R09/29//50 NOSIG RMK QFE692/0923
Conditions at: UTDD (DUSHANBE , TJ) observed 0500 UTC 19 March 2019
Temperature: 10.0°C (50°F)
Dewpoint: 9.0°C (48°F) [RH = 93%]
Pressure (altimeter): 29.91 inches Hg (1013.0 mb)
Winds: from the ESE (120 degrees) at 9 MPH (8 knots; 4.1 m/s)
Visibility: 4 miles ( 6 km)
Ceiling: 6400 feet AGL
Clouds: scattered clouds at 5100 feet AGL
overcast cloud deck at 6400 feet AGL
Weather: -SHRA  (light rain showers)

METAR text: UTDD 190430Z 13003MPS 8000 -SHRA SCT039CB OVC072 10/09 Q1013 R09/29//50 NOSIG RMK QFE692/0922
Conditions at: UTDD (DUSHANBE , TJ) observed 0430 UTC 19 March 2019
Temperature: 10.0°C (50°F)
Dewpoint: 9.0°C (48°F) [RH = 93%]
Pressure (altimeter): 29.91 inches Hg (1013.0 mb)
Winds: from the SE (130 degrees) at 7 MPH (6 knots; 3.1 m/s)
Visibility: 5 miles ( 8 km)
Ceiling: 7200 feet AGL
Clouds: scattered clouds at 3900 feet AGL
overcast cloud deck at 7200 feet AGL
Weather: -SHRA  (light rain showers)

METAR text: UTDD 190400Z 13004MPS 9000 -SHRA SCT053CB BKN061 OVC071 10/08 Q1013 R09/29//50 NOSIG RMK QFE691/0922
Conditions at: UTDD (DUSHANBE , TJ) observed 0400 UTC 19 March 2019
Temperature: 10.0°C (50°F)
Dewpoint: 8.0°C (46°F) [RH = 87%]
Pressure (altimeter): 29.91 inches Hg (1013.0 mb)
Winds: from the SE (130 degrees) at 9 MPH (8 knots; 4.1 m/s)
Visibility: 6 miles ( 9 km)
Ceiling: 6100 feet AGL
Clouds: scattered clouds at 5300 feet AGL
broken clouds at 6100 feet AGL
overcast cloud deck at 7100 feet AGL
Weather: -SHRA  (light rain showers)

METAR text: UTDD 190330Z 07005MPS 7000 -SHRA SCT055CB OVC066 10/08 Q1012 R09/29//50 NOSIG RMK QFE691/0922
Conditions at: UTDD (DUSHANBE , TJ) observed 0330 UTC 19 March 2019
Temperature: 10.0°C (50°F)
Dewpoint: 8.0°C (46°F) [RH = 87%]
Pressure (altimeter): 29.88 inches Hg (1012.0 mb)
Winds: from the ENE (70 degrees) at 12 MPH (10 knots; 5.1 m/s)
Visibility: 4 miles ( 7 km)
Ceiling: 6600 feet AGL
Clouds: scattered clouds at 5500 feet AGL
overcast cloud deck at 6600 feet AGL
Weather: -SHRA  (light rain showers)

METAR text: UTDD 190300Z 07006MPS 7000 -SHRA SCT049CB OVC058 10/08 Q1012 R09/29//50 NOSIG RMK QFE691/0921
Conditions at: UTDD (DUSHANBE , TJ) observed 0300 UTC 19 March 2019
Temperature: 10.0°C (50°F)
Dewpoint: 8.0°C (46°F) [RH = 87%]
Pressure (altimeter): 29.88 inches Hg (1012.0 mb)
Winds: from the ENE (70 degrees) at 14 MPH (12 knots; 6.2 m/s)
Visibility: 4 miles ( 7 km)
Ceiling: 5800 feet AGL
Clouds: scattered clouds at 4900 feet AGL
overcast cloud deck at 5800 feet AGL
Weather: -SHRA  (light rain showers)

METAR text: UTDD 190230Z 07005MPS 8000 -SHRA SCT047CB OVC056 09/08 Q1012 R09/29//50 NOSIG RMK QFE691/0921
Conditions at: UTDD (DUSHANBE , TJ) observed 0230 UTC 19 March 2019
Temperature: 9.0°C (48°F)
Dewpoint: 8.0°C (46°F) [RH = 93%]
Pressure (altimeter): 29.88 inches Hg (1012.0 mb)
Winds: from the ENE (70 degrees) at 12 MPH (10 knots; 5.1 m/s)
Visibility: 5 miles ( 8 km)
Ceiling: 5600 feet AGL
Clouds: scattered clouds at 4700 feet AGL
overcast cloud deck at 5600 feet AGL
Weather: -SHRA  (light rain showers)

METAR text: UTDD 190200Z 10003MPS 6000 2000N -SHRA BR SCT051CB SCT051 09/08 Q1012 R09/29//50 NOSIG RMK QFE691/0921
Conditions at: UTDD (DUSHANBE , TJ) observed 0200 UTC 19 March 2019
Temperature: 9.0°C (48°F)
Dewpoint: 8.0°C (46°F) [RH = 93%]
Pressure (altimeter): 29.88 inches Hg (1012.0 mb)
Winds: from the E (100 degrees) at 7 MPH (6 knots; 3.1 m/s)
Visibility: 4 miles ( 6 km)
Ceiling: at least 12,000 feet AGL
Clouds: scattered clouds at 5100 feet AGL
scattered clouds at 5100 feet AGL
Weather: -SHRA BR  (light rain showers, mist)

METAR text: UTDD 190130Z 07003MPS 8000 -SHRA SCT061CB SCT061 09/08 Q1012 R09/29//50 NOSIG RMK QFE691/0921
Conditions at: UTDD (DUSHANBE , TJ) observed 0130 UTC 19 March 2019
Temperature: 9.0°C (48°F)
Dewpoint: 8.0°C (46°F) [RH = 93%]
Pressure (altimeter): 29.88 inches Hg (1012.0 mb)
Winds: from the ENE (70 degrees) at 7 MPH (6 knots; 3.1 m/s)
Visibility: 5 miles ( 8 km)
Ceiling: at least 12,000 feet AGL
Clouds: scattered clouds at 6100 feet AGL
scattered clouds at 6100 feet AGL
Weather: -SHRA  (light rain showers)

METAR text: UTDD 190100Z 08004MPS 9999 -SHRA SCT047CB OVC063 09/08 Q1012 R09/29//50 NOSIG RMK QFE691/0921
Conditions at: UTDD (DUSHANBE , TJ) observed 0100 UTC 19 March 2019
Temperature: 9.0°C (48°F)
Dewpoint: 8.0°C (46°F) [RH = 93%]
Pressure (altimeter): 29.88 inches Hg (1012.0 mb)
Winds: from the E (80 degrees) at 9 MPH (8 knots; 4.1 m/s)
Visibility: 6 or more miles (10+ km)
Ceiling: 6300 feet AGL
Clouds: scattered clouds at 4700 feet AGL
overcast cloud deck at 6300 feet AGL
Weather: -SHRA  (light rain showers)

METAR text: UTDD 190030Z 09003MPS 8000 3200N -SHRA BR BKN045CB OVC056 09/08 Q1012 R09/29//50 NOSIG RMK QFE691/0921
Conditions at: UTDD (DUSHANBE , TJ) observed 0030 UTC 19 March 2019
Temperature: 9.0°C (48°F)
Dewpoint: 8.0°C (46°F) [RH = 93%]
Pressure (altimeter): 29.88 inches Hg (1012.0 mb)
Winds: from the E (90 degrees) at 7 MPH (6 knots; 3.1 m/s)
Visibility: 5 miles ( 8 km)
Ceiling: 4500 feet AGL
Clouds: broken clouds at 4500 feet AGL
overcast cloud deck at 5600 feet AGL
Weather: -SHRA BR  (light rain showers, mist)

METAR text: UTDD 190000Z 06002MPS 9999 -SHRA FEW040 BKN048CB OVC058 09/08 Q1012 R09/29//50 NOSIG RMK QFE691/0921
Conditions at: UTDD (DUSHANBE , TJ) observed 0000 UTC 19 March 2019
Temperature: 9.0°C (48°F)
Dewpoint: 8.0°C (46°F) [RH = 93%]
Pressure (altimeter): 29.88 inches Hg (1012.0 mb)
Winds: from the ENE (60 degrees) at 5 MPH (4 knots; 2.1 m/s)
Visibility: 6 or more miles (10+ km)
Ceiling: 4800 feet AGL
Clouds: few clouds at 4000 feet AGL
broken clouds at 4800 feet AGL
overcast cloud deck at 5800 feet AGL
Weather: -SHRA  (light rain showers)

METAR text: UTDD 182330Z 04002MPS 9999 -SHRA FEW019 BKN039CB OVC045 09/08 Q1012 R09/29//50 NOSIG RMK QFE691/0921
Conditions at: UTDD (DUSHANBE , TJ) observed 2330 UTC 18 March 2019
Temperature: 9.0°C (48°F)
Dewpoint: 8.0°C (46°F) [RH = 93%]
Pressure (altimeter): 29.88 inches Hg (1012.0 mb)
Winds: from the NE (40 degrees) at 5 MPH (4 knots; 2.1 m/s)
Visibility: 6 or more miles (10+ km)
Ceiling: 3900 feet AGL
Clouds: few clouds at 1900 feet AGL
broken clouds at 3900 feet AGL
overcast cloud deck at 4500 feet AGL
Weather: -SHRA  (light rain showers)

METAR text: UTDD 182300Z 32001MPS 9999 -SHRA FEW007 BKN019 BKN049CB 09/08 Q1012 R09/29//50 NOSIG RMK QFE691/0921
Conditions at: UTDD (DUSHANBE , TJ) observed 2300 UTC 18 March 2019
Temperature: 9.0°C (48°F)
Dewpoint: 8.0°C (46°F) [RH = 93%]
Pressure (altimeter): 29.88 inches Hg (1012.0 mb)
Winds: from the NW (320 degrees) at 2 MPH (2 knots; 1.0 m/s)
Visibility: 6 or more miles (10+ km)
Ceiling: 1900 feet AGL
Clouds: few clouds at 700 feet AGL
broken clouds at 1900 feet AGL
broken clouds at 4900 feet AGL
Weather: -SHRA  (light rain showers)

METAR text: UTDD 182230Z 26001MPS 9999 -SHRA BKN019 BKN046CB OVC056 09/08 Q1012 R09/29//50 NOSIG RMK QFE691/0921
Conditions at: UTDD (DUSHANBE , TJ) observed 2230 UTC 18 March 2019
Temperature: 9.0°C (48°F)
Dewpoint: 8.0°C (46°F) [RH = 93%]
Pressure (altimeter): 29.88 inches Hg (1012.0 mb)
Winds: from the W (260 degrees) at 2 MPH (2 knots; 1.0 m/s)
Visibility: 6 or more miles (10+ km)
Ceiling: 1900 feet AGL
Clouds: broken clouds at 1900 feet AGL
broken clouds at 4600 feet AGL
overcast cloud deck at 5600 feet AGL
Weather: -SHRA  (light rain showers)

METAR text: UTDD 182200Z 25003MPS 9999 -SHRA SCT019 BKN058CB OVC060 09/08 Q1012 R09/29//50 NOSIG RMK QFE691/0921
Conditions at: UTDD (DUSHANBE , TJ) observed 2200 UTC 18 March 2019
Temperature: 9.0°C (48°F)
Dewpoint: 8.0°C (46°F) [RH = 93%]
Pressure (altimeter): 29.88 inches Hg (1012.0 mb)
Winds: from the WSW (250 degrees) at 7 MPH (6 knots; 3.1 m/s)
Visibility: 6 or more miles (10+ km)
Ceiling: 5800 feet AGL
Clouds: scattered clouds at 1900 feet AGL
broken clouds at 5800 feet AGL
overcast cloud deck at 6000 feet AGL
Weather: -SHRA  (light rain showers)

METAR text: UTDD 182130Z 27004MPS 9999 -SHRA FEW021 BKN059CB 10/08 Q1012 R09/D NOSIG RMK QFE691/0921
Conditions at: UTDD (DUSHANBE , TJ) observed 2130 UTC 18 March 2019
Temperature: 10.0°C (50°F)
Dewpoint: 8.0°C (46°F) [RH = 87%]
Pressure (altimeter): 29.88 inches Hg (1012.0 mb)
Winds: from the W (270 degrees) at 9 MPH (8 knots; 4.1 m/s)
Visibility: 6 or more miles (10+ km)
Ceiling: 5900 feet AGL
Clouds: few clouds at 2100 feet AGL
broken clouds at 5900 feet AGL
Weather: -SHRA  (light rain showers)

METAR text: UTDD 182100Z 27004MPS 9999 FEW073CB SCT073 10/07 Q1012 R09/D NOSIG RMK QFE691/0921
Conditions at: UTDD (DUSHANBE , TJ) observed 2100 UTC 18 March 2019
Temperature: 10.0°C (50°F)
Dewpoint: 7.0°C (45°F) [RH = 82%]
Pressure (altimeter): 29.88 inches Hg (1012.0 mb)
Winds: from the W (270 degrees) at 9 MPH (8 knots; 4.1 m/s)
Visibility: 6 or more miles (10+ km)
Ceiling: at least 12,000 feet AGL
Clouds: few clouds at 7300 feet AGL
scattered clouds at 7300 feet AGL
Weather: no significant weather observed at this time

METAR text: UTDD 182030Z 28004MPS 9999 -SHRA FEW068CB BKN077 BKN110 10/07 Q1012 R09/D NOSIG RMK QFE691/0921
Conditions at: UTDD (DUSHANBE , TJ) observed 2030 UTC 18 March 2019
Temperature: 10.0°C (50°F)
Dewpoint: 7.0°C (45°F) [RH = 82%]
Pressure (altimeter): 29.88 inches Hg (1012.0 mb)
Winds: from the W (280 degrees) at 9 MPH (8 knots; 4.1 m/s)
Visibility: 6 or more miles (10+ km)
Ceiling: 7700 feet AGL
Clouds: few clouds at 6800 feet AGL
broken clouds at 7700 feet AGL
broken clouds at 11000 feet AGL
Weather: -SHRA  (light rain showers)

METAR text: UTDD 182000Z 28005MPS 9999 -SHRA SCT068CB OVC077 11/06 Q1013 R27/D NOSIG RMK QFE692/0923
Conditions at: UTDD (DUSHANBE , TJ) observed 2000 UTC 18 March 2019
Temperature: 11.0°C (52°F)
Dewpoint: 6.0°C (43°F) [RH = 71%]
Pressure (altimeter): 29.91 inches Hg (1013.0 mb)
Winds: from the W (280 degrees) at 12 MPH (10 knots; 5.1 m/s)
Visibility: 6 or more miles (10+ km)
Ceiling: 7700 feet AGL
Clouds: scattered clouds at 6800 feet AGL
overcast cloud deck at 7700 feet AGL
Weather: -SHRA  (light rain showers)

METAR text: UTDD 181930Z 28006MPS 9999 FEW044CB BKN064 BKN085 12/05 Q1013 R27/D TEMPO 29008MPS RMK QFE692/0923
Conditions at: UTDD (DUSHANBE , TJ) observed 1930 UTC 18 March 2019
Temperature: 12.0°C (54°F)
Dewpoint: 5.0°C (41°F) [RH = 62%]
Pressure (altimeter): 29.91 inches Hg (1013.0 mb)
Winds: from the W (280 degrees) at 14 MPH (12 knots; 6.2 m/s)
Visibility: 6 or more miles (10+ km)
Ceiling: 6400 feet AGL
Clouds: few clouds at 4400 feet AGL
broken clouds at 6400 feet AGL
broken clouds at 8500 feet AGL
Weather: no significant weather observed at this time

METAR text: UTDD 181900Z 29005MPS 9999 FEW066CB BKN085 12/05 Q1013 R27/D TEMPO 29008MPS RMK QFE692/0923
Conditions at: UTDD (DUSHANBE , TJ) observed 1900 UTC 18 March 2019
Temperature: 12.0°C (54°F)
Dewpoint: 5.0°C (41°F) [RH = 62%]
Pressure (altimeter): 29.91 inches Hg (1013.0 mb)
Winds: from the WNW (290 degrees) at 12 MPH (10 knots; 5.1 m/s)
Visibility: 6 or more miles (10+ km)
Ceiling: 8500 feet AGL
Clouds: few clouds at 6600 feet AGL
broken clouds at 8500 feet AGL
Weather: no significant weather observed at this time

METAR text: UTDD 181830Z 29007MPS 9999 FEW066CB BKN098 13/05 Q1012 R27/D TEMPO 29008MPS RMK QFE692/0922
Conditions at: UTDD (DUSHANBE , TJ) observed 1830 UTC 18 March 2019
Temperature: 13.0°C (55°F)
Dewpoint: 5.0°C (41°F) [RH = 58%]
Pressure (altimeter): 29.88 inches Hg (1012.0 mb)
Winds: from the WNW (290 degrees) at 16 MPH (14 knots; 7.2 m/s)
Visibility: 6 or more miles (10+ km)
Ceiling: 9800 feet AGL
Clouds: few clouds at 6600 feet AGL
broken clouds at 9800 feet AGL
Weather: no significant weather observed at this time

METAR text: UTDD 181800Z 28007MPS 8000 FEW066CB BKN100 13/05 Q1012 R09/D TEMPO 29008MPS 2000 HZ RMK QFE691/0921
Conditions at: UTDD (DUSHANBE , TJ) observed 1800 UTC 18 March 2019
Temperature: 13.0°C (55°F)
Dewpoint: 5.0°C (41°F) [RH = 58%]
Pressure (altimeter): 29.88 inches Hg (1012.0 mb)
Winds: from the W (280 degrees) at 16 MPH (14 knots; 7.2 m/s)
Visibility: 5 miles ( 8 km)
Ceiling: 10000 feet AGL
Clouds: few clouds at 6600 feet AGL
broken clouds at 10000 feet AGL
Weather: no significant weather observed at this time

METAR text: UTDD 181730Z 28007MPS 6000 SCT036CB BKN044 BKN096 13/04 Q1011 R09/D TEMPO 28009G14MPS 2000 HZ RMK QFE690/0920
Conditions at: UTDD (DUSHANBE , TJ) observed 1730 UTC 18 March 2019
Temperature: 13.0°C (55°F)
Dewpoint: 4.0°C (39°F) [RH = 54%]
Pressure (altimeter): 29.85 inches Hg (1011.0 mb)
Winds: from the W (280 degrees) at 16 MPH (14 knots; 7.2 m/s)
Visibility: 4 miles ( 6 km)
Ceiling: 4400 feet AGL
Clouds: scattered clouds at 3600 feet AGL
broken clouds at 4400 feet AGL
broken clouds at 9600 feet AGL
Weather: no significant weather observed at this time

METAR text: UTDD 181700Z 28009G14MPS 5000 HZ SCT022 SCT028CB 13/04 Q1010 R09/D TEMPO 28010G15MPS 2000 HZ RMK QFE690/0919
Conditions at: UTDD (DUSHANBE , TJ) observed 1700 UTC 18 March 2019
Temperature: 13.0°C (55°F)
Dewpoint: 4.0°C (39°F) [RH = 54%]
Pressure (altimeter): 29.82 inches Hg (1010.0 mb)
Winds: from the W (280 degrees) at 20 MPH (17 knots; 8.7 m/s)
gusting to 31 MPH (27 knots; 13.9 m/s)
Visibility: 3 miles ( 5 km)
Ceiling: at least 12,000 feet AGL
Clouds: scattered clouds at 2200 feet AGL
scattered clouds at 2800 feet AGL
Weather: HZ  (haze)

METAR text: UTDD 181630Z 29010G15MPS 3200 HZ BKN020 BKN028CB 13/04 Q1009 R09/D TEMPO 28012G17MPS 2000 HZ RMK QFE689/0918
Conditions at: UTDD (DUSHANBE , TJ) observed 1630 UTC 18 March 2019
Temperature: 13.0°C (55°F)
Dewpoint: 4.0°C (39°F) [RH = 54%]
Pressure (altimeter): 29.79 inches Hg (1009.0 mb)
Winds: from the WNW (290 degrees) at 22 MPH (19 knots; 9.8 m/s)
gusting to 33 MPH (29 knots; 14.9 m/s)
Visibility: 1.99 miles (3.20 km)
Ceiling: 2000 feet AGL
Clouds: broken clouds at 2000 feet AGL
broken clouds at 2800 feet AGL
Weather: HZ  (haze)

METAR text: UTDD 181600Z 28010G15MPS 3300 HZ SCT022CB OVC025 14/04 Q1008 WS RWY09 R09/D TEMPO 28013G18MPS 2000 HZ RMK QFE688/0918
Conditions at: UTDD (DUSHANBE , TJ) observed 1600 UTC 18 March 2019
Temperature: 14.0°C (57°F)
Dewpoint: 4.0°C (39°F) [RH = 51%]
Pressure (altimeter): 29.76 inches Hg (1008.0 mb)
Winds: from the W (280 degrees) at 22 MPH (19 knots; 9.8 m/s)
gusting to 33 MPH (29 knots; 14.9 m/s)
Visibility: 2.05 miles (3.30 km)
Ceiling: 2500 feet AGL
Clouds: scattered clouds at 2200 feet AGL
overcast cloud deck at 2500 feet AGL
Weather: HZ  (haze)

Forecast for: UTDD (DUSHANBE , TJ)
Text: TAF UTDD 200300Z 2004/2016 VRB02MPS 6000 FEW060CB SCT100
Forecast period: 0400 to 1600 UTC 20 March 2019
Forecast type: FROM: standard forecast or significant change
Winds: variable direction winds at 5 MPH (4 knots; 2.1 m/s)
Visibility: 4 miles (6 km)
Ceiling: at least 12,000 feet AGL
Clouds: few clouds at 6000 feet AGL
scattered clouds at 10000 feet AGL
Weather: no significant weather forecast for this period
Text: TEMPO 2007/2016 27005MPS
Forecast period: 0700 to 1600 UTC 20 March 2019
Forecast type: TEMPORARY: The following changes expected for less than half the time period
Winds: from the W (270 degrees) at 12 MPH (10 knots; 5.1 m/s)
Visibility: missing
Ceiling: unknown
Clouds: missing
Weather: no significant weather forecast for this period
Text: PROB40
Forecast period: 0700 to 1600 UTC 20 March 2019
Forecast type: TEMPORARY: The following changes expected for less than half the time period
Winds: variable direction winds at 18 MPH (16 knots; 8.2 m/s)
Visibility: 1.37 miles (2.20 km)
Ceiling: unknown
Clouds: missing
Weather: -TSRA BR  (light rain associated with thunderstorm(s), mist)